Latest Weather Observations for Arlington Reef

IDQ60801

Issued at 2:22 pm EST Thursday 13 December 2018 (issued every 10 minutes, with the page automatically refreshed every 10 minutes)

About weather observations | Map of weather stations | Latest weather observations for QLD | Other Formats
Station Details ID: 200879 Name: ARLINGTON REEF Lat: -16.72 Lon: 146.11 Height: 0.0 m
Data from the previous 72 hours. | See also: Recent months at Arlington Reef
Date/Time
EST
Temp
°C
App
Temp
°C
Dew
Point
°C
Rel
Hum
%
Delta-T
°C
Wind Press
QNH
hPa
Press
MSL
hPa
Rain since
9am
mm
Dir  Spd
km/h
Gust
km/h
Spd
kts
Gust
kts
13/02:00pm - - - - - NNE 17 20 9 11 1005.9 1005.9 -
13/01:30pm - - - - - NNE 19 22 10 12 1006.4 1006.4 -
13/01:00pm - - - - - NNE 13 17 7 9 1007.4 1007.4 -
13/12:30pm - - - - - N 7 11 4 6 1007.8 1007.8 -
13/12:00pm - - - - - NNW 6 7 3 4 1008.3 1008.3 -
13/11:30am - - - - - NW 4 7 2 4 1008.7 1008.7 -
13/11:00am - - - - - NW 2 2 1 1 1008.9 1008.9 -
13/10:30am - - - - - CALM 0 0 0 0 1008.9 1008.9 -
13/10:00am - - - - - NW 4 6 2 3 1008.9 1008.9 -
13/09:30am - - - - - NW 4 6 2 3 1008.9 1008.9 -
13/09:00am - - - - - NW 4 4 2 2 1009.0 1009.0 -
13/08:30am - - - - - CALM 0 0 0 0 1008.8 1008.8 -
13/08:00am - - - - - W 6 7 3 4 1008.8 1008.8 -
13/07:30am - - - - - NW 4 6 2 3 1008.6 1008.6 -
13/07:00am - - - - - NW 4 6 2 3 1008.4 1008.4 -
13/06:30am - - - - - CALM 0 0 0 0 1008.2 1008.2 -
13/06:00am - - - - - CALM 0 0 0 0 1007.9 1007.9 -
13/05:30am - - - - - NW 2 4 1 2 1007.7 1007.7 -
13/05:00am - - - - - NW 6 7 3 4 1007.8 1007.8 -
13/04:30am - - - - - CALM 0 0 0 0 1007.3 1007.3 -
13/04:00am - - - - - W 2 2 1 1 1006.9 1006.9 -
13/03:30am - - - - - W 2 4 1 2 1006.7 1006.7 -
13/03:00am - - - - - W 4 6 2 3 1006.6 1006.6 -
13/02:30am - - - - - WSW 4 7 2 4 1006.5 1006.5 -
13/02:00am - - - - - SSW 4 6 2 3 1006.5 1006.5 -
13/01:30am - - - - - S 4 6 2 3 1006.5 1006.5 -
13/01:00am - - - - - CALM 0 0 0 0 1006.8 1006.8 -
13/12:30am - - - - - S 4 6 2 3 1007.3 1007.3 -
13/12:00am - - - - - SSE 4 6 2 3 1007.7 1007.7 -
 
Date/Time
EST
Temp
°C
App
Temp
°C
Dew
Point
°C
Rel
Hum
%
Delta-T
°C
Wind Press
QNH
hPa
Press
MSL
hPa
Rain since
9am
mm
Dir  Spd
km/h
Gust
km/h
Spd
kts
Gust
kts
12/11:30pm - - - - - SSE 7 9 4 5 1007.9 1007.9 -
12/11:00pm - - - - - SSE 7 9 4 5 1008.0 1008.0 -
12/10:30pm - - - - - SSE 7 9 4 5 1008.3 1008.3 -
12/10:00pm - - - - - SSE 7 9 4 5 1008.6 1008.6 -
12/09:30pm - - - - - SSE 11 13 6 7 1008.9 1008.9 -
12/09:00pm - - - - - SSE 13 15 7 8 1009.0 1009.0 -
12/08:30pm - - - - - S 11 13 6 7 1008.9 1008.9 -
12/08:00pm - - - - - SSE 11 13 6 7 1008.8 1008.8 -
12/07:30pm - - - - - SSE 9 11 5 6 1008.5 1008.5 -
12/07:00pm - - - - - ESE 4 7 2 4 1008.4 1008.4 -
12/06:30pm - - - - - SE 7 9 4 5 1007.9 1007.9 -
12/06:00pm - - - - - SE 9 13 5 7 1007.5 1007.5 -
12/05:30pm - - - - - E 6 7 3 4 1007.2 1007.2 -
12/05:00pm - - - - - ESE 6 7 3 4 1007.0 1007.0 -
12/04:30pm - - - - - SE 6 7 3 4 1007.1 1007.1 -
12/04:00pm - - - - - S 4 6 2 3 1007.1 1007.1 -
12/03:30pm - - - - - S 6 7 3 4 1007.2 1007.2 -
12/03:00pm - - - - - S 7 9 4 5 1007.4 1007.4 -
12/02:30pm - - - - - S 6 9 3 5 1007.4 1007.4 -
12/02:00pm - - - - - S 6 9 3 5 1007.7 1007.7 -
12/01:30pm - - - - - S 7 7 4 4 1008.0 1008.0 -
12/01:00pm - - - - - S 7 9 4 5 1008.2 1008.2 -
12/12:30pm - - - - - S 7 9 4 5 1008.6 1008.6 -
12/12:00pm - - - - - S 6 7 3 4 1009.2 1009.2 -
12/11:30am - - - - - SSE 4 6 2 3 1009.5 1009.5 -
12/11:00am - - - - - SSE 7 9 4 5 1009.8 1009.8 -
12/10:30am - - - - - SE 7 9 4 5 1010.1 1010.1 -
12/10:00am - - - - - SE 6 7 3 4 1010.4 1010.4 -
12/09:30am - - - - - E 9 11 5 6 1010.4 1010.4 -
12/09:00am - - - - - ESE 9 11 5 6 1010.3 1010.3 -
12/08:30am - - - - - ESE 11 13 6 7 1009.9 1009.9 -
12/08:00am - - - - - ESE 11 13 6 7 1009.5 1009.5 -
12/07:30am - - - - - ESE 11 13 6 7 1009.3 1009.3 -
12/07:00am - - - - - ESE 13 15 7 8 1009.1 1009.1 -
12/06:30am - - - - - SE 13 15 7 8 1008.9 1008.9 -
12/06:00am - - - - - ESE 15 17 8 9 1008.4 1008.4 -
12/05:30am - - - - - SE 15 17 8 9 1007.9 1007.9 -
12/05:00am - - - - - SE 13 19 7 10 1007.7 1007.7 -
12/04:30am - - - - - SE 11 15 6 8 1007.6 1007.6 -
12/04:00am - - - - - SE 13 15 7 8 1007.5 1007.5 -
12/03:30am - - - - - ESE 13 15 7 8 1007.7 1007.7 -
12/03:00am - - - - - ESE 15 17 8 9 1007.6 1007.6 -
12/02:30am - - - - - SE 17 19 9 10 1007.8 1007.8 -
12/02:00am - - - - - ESE 13 15 7 8 1008.2 1008.2 -
12/01:30am - - - - - SE 15 17 8 9 1008.1 1008.1 -
12/01:00am - - - - - SE 13 15 7 8 1008.6 1008.6 -
12/12:30am - - - - - ESE 15 17 8 9 1008.8 1008.8 -
12/12:00am - - - - - SE 17 20 9 11 1009.3 1009.3 -
 
Date/Time
EST
Temp
°C
App
Temp
°C
Dew
Point
°C
Rel
Hum
%
Delta-T
°C
Wind Press
QNH
hPa
Press
MSL
hPa
Rain since
9am
mm
Dir  Spd
km/h
Gust
km/h
Spd
kts
Gust
kts
11/11:30pm - - - - - SE 17 19 9 10 1009.5 1009.5 -
11/11:00pm - - - - - SE 17 19 9 10 1009.9 1009.9 -
11/10:30pm - - - - - SE 15 17 8 9 1010.2 1010.2 -
11/10:00pm - - - - - SE 15 17 8 9 1010.1 1010.1 -
11/09:30pm - - - - - SE 15 17 8 9 1010.1 1010.1 -
11/09:00pm - - - - - SE 15 17 8 9 1010.0 1010.0 -
11/08:30pm - - - - - SE 13 17 7 9 1009.7 1009.7 -
11/08:00pm - - - - - SE 13 15 7 8 1009.4 1009.4 -
11/07:30pm - - - - - ESE 11 13 6 7 1009.1 1009.1 -
11/07:00pm - - - - - SE 11 13 6 7 1008.9 1008.9 -
11/06:30pm - - - - - ESE 9 11 5 6 1008.7 1008.7 -
11/06:00pm - - - - - ESE 11 13 6 7 1008.4 1008.4 -
11/05:30pm - - - - - ESE 15 17 8 9 1007.9 1007.9 -
11/05:00pm - - - - - ESE 9 11 5 6 1007.7 1007.7 -
11/04:30pm - - - - - ESE 11 13 6 7 1007.5 1007.5 -
11/04:00pm - - - - - ESE 11 13 6 7 1007.5 1007.5 -
11/03:30pm - - - - - ESE 11 11 6 6 1007.8 1007.8 -
11/03:00pm - - - - - E 13 15 7 8 1007.9 1007.9 -
11/02:30pm - - - - - ESE 13 17 7 9 1008.1 1008.1 -
11/02:00pm - - - - - E 15 17 8 9 1008.3 1008.3 -
11/01:30pm - - - - - ESE 15 17 8 9 1008.8 1008.8 -
11/01:00pm - - - - - ESE 15 19 8 10 1009.0 1009.0 -
11/12:30pm - - - - - ESE 15 19 8 10 1009.1 1009.1 -
11/12:00pm - - - - - ESE 15 17 8 9 1009.6 1009.6 -
11/11:30am - - - - - ESE 15 17 8 9 1009.9 1009.9 -
11/11:00am - - - - - ESE 13 15 7 8 1010.1 1010.1 -
11/10:30am - - - - - E 15 17 8 9 1010.1 1010.1 -
11/10:00am - - - - - E 19 20 10 11 1010.1 1010.1 -
11/09:30am - - - - - E 17 20 9 11 1010.2 1010.2 -
11/09:00am - - - - - E 19 22 10 12 1010.4 1010.4 -
11/08:30am - - - - - E 19 22 10 12 1010.4 1010.4 -
11/08:00am - - - - - E 19 20 10 11 1010.2 1010.2 -
11/07:30am - - - - - E 19 20 10 11 1009.9 1009.9 -
11/07:00am - - - - - E 17 19 9 10 1009.8 1009.8 -
11/06:30am - - - - - ESE 17 19 9 10 1009.4 1009.4 -
11/06:00am - - - - - ESE 22 26 12 14 1008.5 1008.5 -
11/05:30am - - - - - ESE 19 22 10 12 1008.1 1008.1 -
11/05:00am - - - - - ESE 20 24 11 13 1007.8 1007.8 -
11/04:30am - - - - - ESE 20 24 11 13 1007.5 1007.5 -
11/04:00am - - - - - ESE 20 22 11 12 1007.5 1007.5 -
11/03:30am - - - - - ESE 19 22 10 12 1007.4 1007.4 -
11/03:00am - - - - - SE 22 26 12 14 1007.3 1007.3 -
11/02:30am - - - - - SE 19 20 10 11 1007.6 1007.6 -
11/02:00am - - - - - SE 17 19 9 10 1007.7 1007.7 -
11/01:30am - - - - - SE 19 20 10 11 1007.8 1007.8 -
11/01:00am - - - - - ESE 17 19 9 10 1008.2 1008.2 -
11/12:30am - - - - - ESE 15 17 8 9 1008.5 1008.5 -
11/12:00am - - - - - ESE 17 17 9 9 1008.6 1008.6 -
 
Date/Time
EST
Temp
°C
App
Temp
°C
Dew
Point
°C
Rel
Hum
%
Delta-T
°C
Wind Press
QNH
hPa
Press
MSL
hPa
Rain since
9am
mm
Dir  Spd
km/h
Gust
km/h
Spd
kts
Gust
kts
10/11:30pm - - - - - ESE 17 19 9 10 1008.6 1008.6 -
10/11:00pm - - - - - ESE 15 20 8 11 1008.9 1008.9 -
10/10:30pm - - - - - E 17 20 9 11 1008.9 1008.9 -
10/10:00pm - - - - - E 15 17 8 9 1008.9 1008.9 -
10/09:30pm - - - - - E 17 19 9 10 1008.6 1008.6 -
10/09:00pm - - - - - E 17 20 9 11 1008.3 1008.3 -
10/08:30pm - - - - - E 19 22 10 12 1007.9 1007.9 -
10/08:00pm - - - - - E 20 24 11 13 1007.6 1007.6 -
10/07:30pm - - - - - E 20 24 11 13 1007.2 1007.2 -
10/07:00pm - - - - - ENE 22 26 12 14 1007.1 1007.1 -
10/06:30pm - - - - - ENE 24 26 13 14 1006.7 1006.7 -
10/06:00pm - - - - - ENE 24 30 13 16 1006.2 1006.2 -
10/05:30pm - - - - - ENE 26 28 14 15 1005.8 1005.8 -
10/05:00pm - - - - - ENE 24 28 13 15 1005.3 1005.3 -
10/04:30pm - - - - - NE 26 30 14 16 1004.9 1004.9 -
10/04:00pm - - - - - NE 30 35 16 19 1004.7 1004.7 -
10/03:30pm - - - - - NE 32 37 17 20 1004.6 1004.6 -
10/03:00pm - - - - - NE 28 35 15 19 1004.8 1004.8 -
10/02:30pm - - - - - ESE 19 22 10 12 1005.1 1005.1 -

Other Formats:

Comma delimited format used in spreadsheet applications
http://www.bom.gov.au/fwo/IDQ60801/IDQ60801.94284.axf

JavaScript Object Notation format (JSON) in row-major order
http://www.bom.gov.au/fwo/IDQ60801/IDQ60801.94284.json